sensor_id;sensor_type;location;lat;lon;timestamp;P1;durP1;ratioP1;P2;durP2;ratioP2
15116;SDS011;7659;51.038;13.786;2024-01-30T00:01:36;37.03;;;20.27;;
15116;SDS011;7659;51.038;13.786;2024-01-30T00:04:02;41.17;;;20.75;;
15116;SDS011;7659;51.038;13.786;2024-01-30T00:06:27;38.78;;;19.52;;
15116;SDS011;7659;51.038;13.786;2024-01-30T00:08:53;40.30;;;20.85;;
15116;SDS011;7659;51.038;13.786;2024-01-30T00:11:18;38.92;;;19.70;;
15116;SDS011;7659;51.038;13.786;2024-01-30T00:13:44;34.80;;;20.38;;
15116;SDS011;7659;51.038;13.786;2024-01-30T00:16:19;38.25;;;20.67;;
15116;SDS011;7659;51.038;13.786;2024-01-30T00:18:45;36.10;;;19.17;;
15116;SDS011;7659;51.038;13.786;2024-01-30T00:21:11;38.42;;;21.95;;
15116;SDS011;7659;51.038;13.786;2024-01-30T00:23:36;42.50;;;21.20;;
15116;SDS011;7659;51.038;13.786;2024-01-30T00:26:01;38.80;;;20.98;;
15116;SDS011;7659;51.038;13.786;2024-01-30T00:28:27;42.42;;;21.98;;
15116;SDS011;7659;51.038;13.786;2024-01-30T00:30:53;36.03;;;19.10;;
15116;SDS011;7659;51.038;13.786;2024-01-30T00:33:18;36.85;;;20.45;;
15116;SDS011;7659;51.038;13.786;2024-01-30T00:35:44;36.00;;;20.30;;
15116;SDS011;7659;51.038;13.786;2024-01-30T00:38:09;39.90;;;20.77;;
15116;SDS011;7659;51.038;13.786;2024-01-30T00:40:35;38.30;;;21.77;;
15116;SDS011;7659;51.038;13.786;2024-01-30T00:43:00;35.28;;;19.30;;
15116;SDS011;7659;51.038;13.786;2024-01-30T00:45:25;35.85;;;20.35;;
15116;SDS011;7659;51.038;13.786;2024-01-30T00:47:51;35.05;;;19.88;;
15116;SDS011;7659;51.038;13.786;2024-01-30T00:50:16;37.47;;;19.25;;
15116;SDS011;7659;51.038;13.786;2024-01-30T00:52:42;32.92;;;19.38;;
15116;SDS011;7659;51.038;13.786;2024-01-30T00:55:10;38.67;;;19.85;;
15116;SDS011;7659;51.038;13.786;2024-01-30T00:57:36;40.10;;;19.52;;
15116;SDS011;7659;51.038;13.786;2024-01-30T01:00:02;35.00;;;18.48;;
15116;SDS011;7659;51.038;13.786;2024-01-30T01:02:28;36.35;;;18.70;;
15116;SDS011;7659;51.038;13.786;2024-01-30T01:04:53;33.22;;;18.65;;
15116;SDS011;7659;51.038;13.786;2024-01-30T01:07:19;36.53;;;20.05;;
15116;SDS011;7659;51.038;13.786;2024-01-30T01:09:44;37.08;;;19.05;;
15116;SDS011;7659;51.038;13.786;2024-01-30T01:12:10;39.58;;;19.90;;
15116;SDS011;7659;51.038;13.786;2024-01-30T01:14:35;34.65;;;18.90;;
15116;SDS011;7659;51.038;13.786;2024-01-30T01:17:01;36.08;;;19.42;;
15116;SDS011;7659;51.038;13.786;2024-01-30T01:19:27;35.90;;;18.92;;
15116;SDS011;7659;51.038;13.786;2024-01-30T01:21:52;34.35;;;18.17;;
15116;SDS011;7659;51.038;13.786;2024-01-30T01:24:18;35.10;;;18.88;;
15116;SDS011;7659;51.038;13.786;2024-01-30T01:26:43;34.08;;;18.30;;
15116;SDS011;7659;51.038;13.786;2024-01-30T01:29:09;34.15;;;18.25;;
15116;SDS011;7659;51.038;13.786;2024-01-30T01:31:37;33.70;;;17.65;;
15116;SDS011;7659;51.038;13.786;2024-01-30T01:34:12;34.05;;;18.08;;
15116;SDS011;7659;51.038;13.786;2024-01-30T01:36:37;34.97;;;18.70;;
15116;SDS011;7659;51.038;13.786;2024-01-30T01:39:03;34.05;;;17.58;;
15116;SDS011;7659;51.038;13.786;2024-01-30T01:41:31;34.15;;;17.67;;
15116;SDS011;7659;51.038;13.786;2024-01-30T01:43:57;36.15;;;18.52;;
15116;SDS011;7659;51.038;13.786;2024-01-30T01:46:23;38.30;;;17.95;;
15116;SDS011;7659;51.038;13.786;2024-01-30T01:48:48;30.15;;;17.88;;
15116;SDS011;7659;51.038;13.786;2024-01-30T01:51:14;31.42;;;17.88;;
15116;SDS011;7659;51.038;13.786;2024-01-30T01:53:39;38.47;;;19.27;;
15116;SDS011;7659;51.038;13.786;2024-01-30T01:56:05;35.28;;;20.30;;
15116;SDS011;7659;51.038;13.786;2024-01-30T01:58:31;32.90;;;18.23;;
15116;SDS011;7659;51.038;13.786;2024-01-30T02:00:57;33.03;;;18.63;;
15116;SDS011;7659;51.038;13.786;2024-01-30T02:03:23;34.97;;;19.48;;
15116;SDS011;7659;51.038;13.786;2024-01-30T02:05:49;34.58;;;18.80;;
15116;SDS011;7659;51.038;13.786;2024-01-30T02:08:15;35.88;;;19.70;;
15116;SDS011;7659;51.038;13.786;2024-01-30T02:10:41;34.53;;;18.83;;
15116;SDS011;7659;51.038;13.786;2024-01-30T02:13:06;37.17;;;18.63;;
15116;SDS011;7659;51.038;13.786;2024-01-30T02:15:32;43.13;;;19.92;;
15116;SDS011;7659;51.038;13.786;2024-01-30T02:17:57;36.58;;;18.65;;
15116;SDS011;7659;51.038;13.786;2024-01-30T02:20:23;34.67;;;18.48;;
15116;SDS011;7659;51.038;13.786;2024-01-30T02:22:49;33.42;;;18.50;;
15116;SDS011;7659;51.038;13.786;2024-01-30T02:25:16;38.08;;;20.15;;
15116;SDS011;7659;51.038;13.786;2024-01-30T02:27:41;30.95;;;17.95;;
15116;SDS011;7659;51.038;13.786;2024-01-30T02:30:07;32.47;;;18.65;;
15116;SDS011;7659;51.038;13.786;2024-01-30T02:32:32;33.63;;;18.70;;
15116;SDS011;7659;51.038;13.786;2024-01-30T02:34:58;36.35;;;19.98;;
15116;SDS011;7659;51.038;13.786;2024-01-30T02:37:24;33.58;;;18.70;;
15116;SDS011;7659;51.038;13.786;2024-01-30T02:39:49;34.33;;;19.58;;
15116;SDS011;7659;51.038;13.786;2024-01-30T02:42:15;41.17;;;19.60;;
15116;SDS011;7659;51.038;13.786;2024-01-30T02:44:40;38.53;;;20.65;;
15116;SDS011;7659;51.038;13.786;2024-01-30T02:47:06;36.88;;;19.95;;
15116;SDS011;7659;51.038;13.786;2024-01-30T02:49:31;36.95;;;19.95;;
15116;SDS011;7659;51.038;13.786;2024-01-30T02:51:57;34.42;;;18.20;;
15116;SDS011;7659;51.038;13.786;2024-01-30T02:54:23;34.78;;;18.65;;
15116;SDS011;7659;51.038;13.786;2024-01-30T02:56:48;34.58;;;19.08;;
15116;SDS011;7659;51.038;13.786;2024-01-30T02:59:14;34.03;;;18.45;;
15116;SDS011;7659;51.038;13.786;2024-01-30T03:01:57;36.42;;;19.52;;
15116;SDS011;7659;51.038;13.786;2024-01-30T03:04:23;37.00;;;18.60;;
15116;SDS011;7659;51.038;13.786;2024-01-30T03:06:48;37.03;;;20.02;;
15116;SDS011;7659;51.038;13.786;2024-01-30T03:09:15;39.08;;;20.73;;
15116;SDS011;7659;51.038;13.786;2024-01-30T03:11:40;35.67;;;18.98;;
15116;SDS011;7659;51.038;13.786;2024-01-30T03:14:06;37.78;;;20.77;;
15116;SDS011;7659;51.038;13.786;2024-01-30T03:16:32;36.88;;;19.40;;
15116;SDS011;7659;51.038;13.786;2024-01-30T03:18:57;38.08;;;20.63;;
15116;SDS011;7659;51.038;13.786;2024-01-30T03:21:23;37.38;;;19.67;;
15116;SDS011;7659;51.038;13.786;2024-01-30T03:23:48;40.97;;;21.30;;
15116;SDS011;7659;51.038;13.786;2024-01-30T03:26:14;35.40;;;19.20;;
15116;SDS011;7659;51.038;13.786;2024-01-30T03:28:40;42.22;;;20.77;;
15116;SDS011;7659;51.038;13.786;2024-01-30T03:31:06;38.10;;;20.45;;
15116;SDS011;7659;51.038;13.786;2024-01-30T03:33:31;40.75;;;21.75;;
15116;SDS011;7659;51.038;13.786;2024-01-30T03:35:57;40.55;;;20.52;;
15116;SDS011;7659;51.038;13.786;2024-01-30T03:38:23;34.72;;;18.35;;
15116;SDS011;7659;51.038;13.786;2024-01-30T03:40:48;35.95;;;20.48;;
15116;SDS011;7659;51.038;13.786;2024-01-30T03:43:14;37.10;;;20.30;;
15116;SDS011;7659;51.038;13.786;2024-01-30T03:45:39;38.75;;;20.52;;
15116;SDS011;7659;51.038;13.786;2024-01-30T03:48:05;37.85;;;19.95;;
15116;SDS011;7659;51.038;13.786;2024-01-30T03:50:30;42.33;;;21.13;;
15116;SDS011;7659;51.038;13.786;2024-01-30T03:52:56;38.47;;;19.25;;
15116;SDS011;7659;51.038;13.786;2024-01-30T03:55:21;37.60;;;20.00;;
15116;SDS011;7659;51.038;13.786;2024-01-30T03:57:47;38.90;;;21.02;;
15116;SDS011;7659;51.038;13.786;2024-01-30T04:00:13;38.17;;;20.08;;
15116;SDS011;7659;51.038;13.786;2024-01-30T04:02:39;44.47;;;21.13;;
15116;SDS011;7659;51.038;13.786;2024-01-30T04:05:05;38.83;;;20.48;;
15116;SDS011;7659;51.038;13.786;2024-01-30T04:07:31;38.83;;;20.08;;
15116;SDS011;7659;51.038;13.786;2024-01-30T04:09:59;34.22;;;19.80;;
15116;SDS011;7659;51.038;13.786;2024-01-30T04:12:25;41.33;;;18.77;;
15116;SDS011;7659;51.038;13.786;2024-01-30T04:14:50;38.50;;;20.58;;
15116;SDS011;7659;51.038;13.786;2024-01-30T04:17:16;32.75;;;19.00;;
15116;SDS011;7659;51.038;13.786;2024-01-30T04:19:41;41.08;;;21.38;;
15116;SDS011;7659;51.038;13.786;2024-01-30T04:22:07;45.05;;;20.08;;
15116;SDS011;7659;51.038;13.786;2024-01-30T04:24:32;39.15;;;21.08;;
15116;SDS011;7659;51.038;13.786;2024-01-30T04:26:58;41.40;;;19.80;;
15116;SDS011;7659;51.038;13.786;2024-01-30T04:29:23;46.00;;;20.80;;
15116;SDS011;7659;51.038;13.786;2024-01-30T04:31:48;39.03;;;20.25;;
15116;SDS011;7659;51.038;13.786;2024-01-30T04:34:14;40.25;;;21.20;;
15116;SDS011;7659;51.038;13.786;2024-01-30T04:36:39;42.45;;;21.13;;
15116;SDS011;7659;51.038;13.786;2024-01-30T04:39:08;37.50;;;19.13;;
15116;SDS011;7659;51.038;13.786;2024-01-30T04:41:33;45.78;;;21.38;;
15116;SDS011;7659;51.038;13.786;2024-01-30T04:43:59;44.97;;;21.70;;
15116;SDS011;7659;51.038;13.786;2024-01-30T04:46:24;43.00;;;19.63;;
15116;SDS011;7659;51.038;13.786;2024-01-30T04:48:50;38.92;;;21.70;;
15116;SDS011;7659;51.038;13.786;2024-01-30T04:51:15;37.78;;;20.08;;
15116;SDS011;7659;51.038;13.786;2024-01-30T04:53:41;42.75;;;20.45;;
15116;SDS011;7659;51.038;13.786;2024-01-30T04:56:06;40.45;;;20.67;;
15116;SDS011;7659;51.038;13.786;2024-01-30T04:58:32;42.80;;;20.98;;
15116;SDS011;7659;51.038;13.786;2024-01-30T05:00:57;41.05;;;19.73;;
15116;SDS011;7659;51.038;13.786;2024-01-30T05:03:23;39.40;;;19.90;;
15116;SDS011;7659;51.038;13.786;2024-01-30T05:05:49;37.95;;;19.85;;
15116;SDS011;7659;51.038;13.786;2024-01-30T05:08:15;38.55;;;20.30;;
15116;SDS011;7659;51.038;13.786;2024-01-30T05:10:40;41.33;;;20.38;;
15116;SDS011;7659;51.038;13.786;2024-01-30T05:13:05;39.83;;;21.63;;
15116;SDS011;7659;51.038;13.786;2024-01-30T05:15:31;41.13;;;20.65;;
15116;SDS011;7659;51.038;13.786;2024-01-30T05:17:56;35.05;;;19.70;;
15116;SDS011;7659;51.038;13.786;2024-01-30T05:20:22;35.20;;;19.42;;
15116;SDS011;7659;51.038;13.786;2024-01-30T05:22:47;38.78;;;20.27;;
15116;SDS011;7659;51.038;13.786;2024-01-30T05:25:13;41.40;;;20.77;;
15116;SDS011;7659;51.038;13.786;2024-01-30T05:27:38;33.92;;;19.90;;
15116;SDS011;7659;51.038;13.786;2024-01-30T05:30:05;38.28;;;19.38;;
15116;SDS011;7659;51.038;13.786;2024-01-30T05:32:31;36.10;;;19.40;;
15116;SDS011;7659;51.038;13.786;2024-01-30T05:34:57;39.05;;;21.38;;
15116;SDS011;7659;51.038;13.786;2024-01-30T05:37:22;45.45;;;23.60;;
15116;SDS011;7659;51.038;13.786;2024-01-30T05:39:48;42.33;;;21.48;;
15116;SDS011;7659;51.038;13.786;2024-01-30T05:42:13;40.63;;;21.08;;
15116;SDS011;7659;51.038;13.786;2024-01-30T05:44:40;43.67;;;22.60;;
15116;SDS011;7659;51.038;13.786;2024-01-30T05:47:05;35.28;;;20.75;;
15116;SDS011;7659;51.038;13.786;2024-01-30T05:49:31;39.83;;;20.60;;
15116;SDS011;7659;51.038;13.786;2024-01-30T05:51:57;43.08;;;20.42;;
15116;SDS011;7659;51.038;13.786;2024-01-30T05:54:22;34.78;;;20.55;;
15116;SDS011;7659;51.038;13.786;2024-01-30T05:56:48;32.50;;;19.38;;
15116;SDS011;7659;51.038;13.786;2024-01-30T05:59:13;34.15;;;19.30;;
15116;SDS011;7659;51.038;13.786;2024-01-30T06:01:45;41.15;;;20.45;;
15116;SDS011;7659;51.038;13.786;2024-01-30T06:04:10;40.10;;;20.65;;
15116;SDS011;7659;51.038;13.786;2024-01-30T06:06:36;41.63;;;21.38;;
15116;SDS011;7659;51.038;13.786;2024-01-30T06:09:01;40.00;;;20.02;;
15116;SDS011;7659;51.038;13.786;2024-01-30T06:11:27;36.88;;;21.23;;
15116;SDS011;7659;51.038;13.786;2024-01-30T06:13:52;44.78;;;20.95;;
15116;SDS011;7659;51.038;13.786;2024-01-30T06:16:17;38.55;;;21.38;;
15116;SDS011;7659;51.038;13.786;2024-01-30T06:18:45;37.15;;;20.13;;
15116;SDS011;7659;51.038;13.786;2024-01-30T06:21:10;36.90;;;20.42;;
15116;SDS011;7659;51.038;13.786;2024-01-30T06:23:35;34.40;;;19.10;;
15116;SDS011;7659;51.038;13.786;2024-01-30T06:26:01;37.00;;;20.08;;
15116;SDS011;7659;51.038;13.786;2024-01-30T06:28:26;38.53;;;19.95;;
15116;SDS011;7659;51.038;13.786;2024-01-30T06:30:52;38.13;;;19.88;;
15116;SDS011;7659;51.038;13.786;2024-01-30T06:33:17;38.90;;;19.75;;
15116;SDS011;7659;51.038;13.786;2024-01-30T06:35:43;39.33;;;20.05;;
15116;SDS011;7659;51.038;13.786;2024-01-30T06:38:11;42.45;;;20.65;;
15116;SDS011;7659;51.038;13.786;2024-01-30T06:40:36;37.83;;;18.73;;
15116;SDS011;7659;51.038;13.786;2024-01-30T06:43:03;36.83;;;19.77;;
15116;SDS011;7659;51.038;13.786;2024-01-30T06:45:29;40.08;;;20.17;;
15116;SDS011;7659;51.038;13.786;2024-01-30T06:47:54;38.22;;;19.65;;
15116;SDS011;7659;51.038;13.786;2024-01-30T06:50:20;35.95;;;19.00;;
15116;SDS011;7659;51.038;13.786;2024-01-30T06:52:46;39.63;;;19.40;;
15116;SDS011;7659;51.038;13.786;2024-01-30T06:55:11;38.00;;;19.88;;
15116;SDS011;7659;51.038;13.786;2024-01-30T06:57:37;36.47;;;20.85;;
15116;SDS011;7659;51.038;13.786;2024-01-30T07:00:03;39.88;;;19.85;;
15116;SDS011;7659;51.038;13.786;2024-01-30T07:02:28;35.47;;;19.83;;
15116;SDS011;7659;51.038;13.786;2024-01-30T07:04:54;37.00;;;20.40;;
15116;SDS011;7659;51.038;13.786;2024-01-30T07:07:19;33.58;;;19.77;;
15116;SDS011;7659;51.038;13.786;2024-01-30T07:09:45;36.35;;;19.20;;
15116;SDS011;7659;51.038;13.786;2024-01-30T07:12:10;34.58;;;18.30;;
15116;SDS011;7659;51.038;13.786;2024-01-30T07:14:36;34.42;;;18.73;;
15116;SDS011;7659;51.038;13.786;2024-01-30T07:17:01;34.35;;;19.20;;
15116;SDS011;7659;51.038;13.786;2024-01-30T07:19:27;32.22;;;19.35;;
15116;SDS011;7659;51.038;13.786;2024-01-30T07:21:52;31.95;;;18.05;;
15116;SDS011;7659;51.038;13.786;2024-01-30T07:24:18;34.08;;;18.95;;
15116;SDS011;7659;51.038;13.786;2024-01-30T07:26:43;36.05;;;18.80;;
15116;SDS011;7659;51.038;13.786;2024-01-30T07:29:08;37.72;;;19.25;;
15116;SDS011;7659;51.038;13.786;2024-01-30T07:31:34;39.55;;;20.65;;
15116;SDS011;7659;51.038;13.786;2024-01-30T07:33:59;36.90;;;19.90;;
15116;SDS011;7659;51.038;13.786;2024-01-30T07:36:25;34.88;;;19.00;;
15116;SDS011;7659;51.038;13.786;2024-01-30T07:38:51;35.33;;;19.23;;
15116;SDS011;7659;51.038;13.786;2024-01-30T07:41:19;35.92;;;18.67;;
15116;SDS011;7659;51.038;13.786;2024-01-30T07:43:45;38.15;;;19.88;;
15116;SDS011;7659;51.038;13.786;2024-01-30T07:46:10;30.08;;;18.92;;
15116;SDS011;7659;51.038;13.786;2024-01-30T07:48:35;31.08;;;19.30;;
15116;SDS011;7659;51.038;13.786;2024-01-30T07:51:01;37.72;;;19.77;;
15116;SDS011;7659;51.038;13.786;2024-01-30T07:53:28;32.33;;;18.45;;
15116;SDS011;7659;51.038;13.786;2024-01-30T07:55:53;33.28;;;18.40;;
15116;SDS011;7659;51.038;13.786;2024-01-30T07:58:19;35.45;;;18.95;;
15116;SDS011;7659;51.038;13.786;2024-01-30T08:00:44;33.40;;;18.48;;
15116;SDS011;7659;51.038;13.786;2024-01-30T08:03:10;31.70;;;18.40;;
15116;SDS011;7659;51.038;13.786;2024-01-30T08:05:35;30.95;;;18.13;;
15116;SDS011;7659;51.038;13.786;2024-01-30T08:08:01;32.67;;;17.00;;
15116;SDS011;7659;51.038;13.786;2024-01-30T08:10:26;33.47;;;17.80;;
15116;SDS011;7659;51.038;13.786;2024-01-30T08:12:52;30.98;;;18.10;;
15116;SDS011;7659;51.038;13.786;2024-01-30T08:15:17;34.75;;;19.67;;
15116;SDS011;7659;51.038;13.786;2024-01-30T08:17:43;33.85;;;17.42;;
15116;SDS011;7659;51.038;13.786;2024-01-30T08:20:10;41.08;;;18.88;;
15116;SDS011;7659;51.038;13.786;2024-01-30T08:22:40;34.40;;;18.73;;
15116;SDS011;7659;51.038;13.786;2024-01-30T08:25:06;29.23;;;16.65;;
15116;SDS011;7659;51.038;13.786;2024-01-30T08:27:31;32.92;;;17.30;;
15116;SDS011;7659;51.038;13.786;2024-01-30T08:29:57;32.55;;;17.27;;
15116;SDS011;7659;51.038;13.786;2024-01-30T08:32:22;32.05;;;18.27;;
15116;SDS011;7659;51.038;13.786;2024-01-30T08:34:49;29.40;;;17.48;;
15116;SDS011;7659;51.038;13.786;2024-01-30T08:37:14;33.22;;;17.58;;
15116;SDS011;7659;51.038;13.786;2024-01-30T08:39:42;32.53;;;17.70;;
15116;SDS011;7659;51.038;13.786;2024-01-30T08:42:07;32.70;;;17.98;;
15116;SDS011;7659;51.038;13.786;2024-01-30T08:44:33;26.33;;;16.17;;
15116;SDS011;7659;51.038;13.786;2024-01-30T08:46:58;29.70;;;17.23;;
15116;SDS011;7659;51.038;13.786;2024-01-30T08:49:24;30.80;;;16.90;;
15116;SDS011;7659;51.038;13.786;2024-01-30T08:51:49;32.75;;;16.77;;
15116;SDS011;7659;51.038;13.786;2024-01-30T08:54:15;31.10;;;16.73;;
15116;SDS011;7659;51.038;13.786;2024-01-30T08:56:41;30.38;;;17.33;;
15116;SDS011;7659;51.038;13.786;2024-01-30T08:59:06;30.88;;;17.27;;
15116;SDS011;7659;51.038;13.786;2024-01-30T09:01:32;30.05;;;16.70;;
15116;SDS011;7659;51.038;13.786;2024-01-30T09:03:57;32.70;;;17.33;;
15116;SDS011;7659;51.038;13.786;2024-01-30T09:06:23;26.83;;;16.23;;
15116;SDS011;7659;51.038;13.786;2024-01-30T09:08:51;33.17;;;17.48;;
15116;SDS011;7659;51.038;13.786;2024-01-30T09:11:17;27.60;;;16.10;;
15116;SDS011;7659;51.038;13.786;2024-01-30T09:13:42;26.67;;;16.15;;
15116;SDS011;7659;51.038;13.786;2024-01-30T09:16:08;30.75;;;16.60;;
15116;SDS011;7659;51.038;13.786;2024-01-30T09:18:34;31.55;;;17.60;;
15116;SDS011;7659;51.038;13.786;2024-01-30T09:20:59;29.00;;;16.05;;
15116;SDS011;7659;51.038;13.786;2024-01-30T09:23:26;33.22;;;17.52;;
15116;SDS011;7659;51.038;13.786;2024-01-30T09:25:52;30.40;;;17.15;;
15116;SDS011;7659;51.038;13.786;2024-01-30T09:28:17;35.00;;;17.50;;
15116;SDS011;7659;51.038;13.786;2024-01-30T09:30:43;29.73;;;16.67;;
15116;SDS011;7659;51.038;13.786;2024-01-30T09:33:08;29.77;;;16.58;;
15116;SDS011;7659;51.038;13.786;2024-01-30T09:35:34;28.67;;;15.63;;
15116;SDS011;7659;51.038;13.786;2024-01-30T09:38:00;29.02;;;16.05;;
15116;SDS011;7659;51.038;13.786;2024-01-30T09:40:25;28.70;;;16.27;;
15116;SDS011;7659;51.038;13.786;2024-01-30T09:42:51;31.17;;;17.00;;
15116;SDS011;7659;51.038;13.786;2024-01-30T09:45:17;29.10;;;17.02;;
15116;SDS011;7659;51.038;13.786;2024-01-30T09:47:43;26.15;;;16.27;;
15116;SDS011;7659;51.038;13.786;2024-01-30T09:50:10;27.17;;;17.00;;
15116;SDS011;7659;51.038;13.786;2024-01-30T09:52:35;29.95;;;16.70;;
15116;SDS011;7659;51.038;13.786;2024-01-30T09:55:01;26.95;;;16.63;;
15116;SDS011;7659;51.038;13.786;2024-01-30T09:57:26;27.05;;;15.57;;
15116;SDS011;7659;51.038;13.786;2024-01-30T09:59:52;26.13;;;15.75;;
15116;SDS011;7659;51.038;13.786;2024-01-30T10:02:19;26.02;;;15.25;;
15116;SDS011;7659;51.038;13.786;2024-01-30T10:04:47;26.33;;;16.00;;
15116;SDS011;7659;51.038;13.786;2024-01-30T10:07:13;27.95;;;15.43;;
15116;SDS011;7659;51.038;13.786;2024-01-30T10:09:39;25.63;;;15.57;;
15116;SDS011;7659;51.038;13.786;2024-01-30T10:12:05;28.92;;;14.32;;
15116;SDS011;7659;51.038;13.786;2024-01-30T10:14:31;24.20;;;15.35;;
15116;SDS011;7659;51.038;13.786;2024-01-30T10:16:57;25.98;;;14.30;;
15116;SDS011;7659;51.038;13.786;2024-01-30T10:19:23;23.25;;;14.18;;
15116;SDS011;7659;51.038;13.786;2024-01-30T10:21:48;24.63;;;14.73;;
15116;SDS011;7659;51.038;13.786;2024-01-30T10:24:14;27.90;;;15.43;;
15116;SDS011;7659;51.038;13.786;2024-01-30T10:26:39;24.48;;;14.85;;
15116;SDS011;7659;51.038;13.786;2024-01-30T10:29:05;27.75;;;15.13;;
15116;SDS011;7659;51.038;13.786;2024-01-30T10:31:31;25.08;;;13.93;;
15116;SDS011;7659;51.038;13.786;2024-01-30T10:33:56;24.55;;;13.82;;
15116;SDS011;7659;51.038;13.786;2024-01-30T10:36:22;27.00;;;14.98;;
15116;SDS011;7659;51.038;13.786;2024-01-30T10:38:51;22.00;;;14.07;;
15116;SDS011;7659;51.038;13.786;2024-01-30T10:41:19;23.50;;;12.38;;
15116;SDS011;7659;51.038;13.786;2024-01-30T10:43:52;20.50;;;12.68;;
15116;SDS011;7659;51.038;13.786;2024-01-30T10:46:20;23.65;;;12.73;;
15116;SDS011;7659;51.038;13.786;2024-01-30T10:48:50;28.70;;;13.82;;
15116;SDS011;7659;51.038;13.786;2024-01-30T10:51:16;20.50;;;12.15;;
15116;SDS011;7659;51.038;13.786;2024-01-30T10:53:43;20.48;;;13.05;;
15116;SDS011;7659;51.038;13.786;2024-01-30T10:56:09;23.95;;;13.68;;
15116;SDS011;7659;51.038;13.786;2024-01-30T10:58:35;23.67;;;13.60;;
15116;SDS011;7659;51.038;13.786;2024-01-30T11:01:01;31.75;;;14.90;;
15116;SDS011;7659;51.038;13.786;2024-01-30T11:03:27;25.08;;;14.32;;
15116;SDS011;7659;51.038;13.786;2024-01-30T11:05:52;23.73;;;13.93;;
15116;SDS011;7659;51.038;13.786;2024-01-30T11:08:24;22.15;;;13.60;;
15116;SDS011;7659;51.038;13.786;2024-01-30T11:10:55;23.02;;;13.38;;
15116;SDS011;7659;51.038;13.786;2024-01-30T11:13:20;22.73;;;13.18;;
15116;SDS011;7659;51.038;13.786;2024-01-30T11:15:47;22.40;;;13.40;;
15116;SDS011;7659;51.038;13.786;2024-01-30T11:18:22;22.75;;;13.50;;
15116;SDS011;7659;51.038;13.786;2024-01-30T11:20:47;20.50;;;12.95;;
15116;SDS011;7659;51.038;13.786;2024-01-30T11:23:13;21.98;;;13.98;;
15116;SDS011;7659;51.038;13.786;2024-01-30T11:25:39;23.60;;;13.88;;
15116;SDS011;7659;51.038;13.786;2024-01-30T11:28:04;21.20;;;13.43;;
15116;SDS011;7659;51.038;13.786;2024-01-30T11:30:30;23.17;;;13.65;;
15116;SDS011;7659;51.038;13.786;2024-01-30T11:33:04;22.38;;;13.20;;
15116;SDS011;7659;51.038;13.786;2024-01-30T11:35:34;25.58;;;14.15;;
15116;SDS011;7659;51.038;13.786;2024-01-30T11:38:00;21.60;;;13.63;;
15116;SDS011;7659;51.038;13.786;2024-01-30T11:40:28;24.25;;;14.60;;
15116;SDS011;7659;51.038;13.786;2024-01-30T11:42:56;22.80;;;14.20;;
15116;SDS011;7659;51.038;13.786;2024-01-30T11:45:26;23.42;;;13.63;;
15116;SDS011;7659;51.038;13.786;2024-01-30T11:47:52;23.55;;;14.60;;
15116;SDS011;7659;51.038;13.786;2024-01-30T11:50:18;26.10;;;15.15;;
15116;SDS011;7659;51.038;13.786;2024-01-30T11:52:43;27.45;;;14.75;;
15116;SDS011;7659;51.038;13.786;2024-01-30T11:55:09;23.27;;;15.05;;
15116;SDS011;7659;51.038;13.786;2024-01-30T11:57:35;25.70;;;15.57;;
15116;SDS011;7659;51.038;13.786;2024-01-30T12:00:02;26.52;;;15.50;;
15116;SDS011;7659;51.038;13.786;2024-01-30T12:02:33;25.88;;;15.80;;
15116;SDS011;7659;51.038;13.786;2024-01-30T12:05:02;25.80;;;16.52;;
15116;SDS011;7659;51.038;13.786;2024-01-30T12:07:28;27.13;;;15.50;;
15116;SDS011;7659;51.038;13.786;2024-01-30T12:09:54;29.63;;;16.58;;
15116;SDS011;7659;51.038;13.786;2024-01-30T12:12:21;28.15;;;16.35;;
15116;SDS011;7659;51.038;13.786;2024-01-30T12:14:48;27.70;;;16.25;;
15116;SDS011;7659;51.038;13.786;2024-01-30T12:17:22;27.98;;;16.17;;
15116;SDS011;7659;51.038;13.786;2024-01-30T12:19:48;32.15;;;17.67;;
15116;SDS011;7659;51.038;13.786;2024-01-30T12:22:13;27.50;;;17.70;;
15116;SDS011;7659;51.038;13.786;2024-01-30T12:24:39;28.13;;;16.90;;
15116;SDS011;7659;51.038;13.786;2024-01-30T12:27:04;31.38;;;17.73;;
15116;SDS011;7659;51.038;13.786;2024-01-30T12:29:32;31.20;;;17.90;;
15116;SDS011;7659;51.038;13.786;2024-01-30T12:31:57;31.02;;;18.23;;
15116;SDS011;7659;51.038;13.786;2024-01-30T12:34:24;31.25;;;18.08;;
15116;SDS011;7659;51.038;13.786;2024-01-30T12:36:50;31.58;;;17.25;;
15116;SDS011;7659;51.038;13.786;2024-01-30T12:39:15;28.38;;;17.30;;
15116;SDS011;7659;51.038;13.786;2024-01-30T12:41:41;28.83;;;17.83;;
15116;SDS011;7659;51.038;13.786;2024-01-30T12:44:06;29.05;;;17.35;;
15116;SDS011;7659;51.038;13.786;2024-01-30T12:46:33;27.00;;;15.85;;
15116;SDS011;7659;51.038;13.786;2024-01-30T12:48:59;28.83;;;16.92;;
15116;SDS011;7659;51.038;13.786;2024-01-30T12:51:24;29.45;;;16.52;;
15116;SDS011;7659;51.038;13.786;2024-01-30T12:53:50;26.42;;;16.30;;
15116;SDS011;7659;51.038;13.786;2024-01-30T12:56:16;29.65;;;16.30;;
15116;SDS011;7659;51.038;13.786;2024-01-30T12:58:41;26.80;;;16.05;;
15116;SDS011;7659;51.038;13.786;2024-01-30T13:01:08;27.85;;;16.45;;
15116;SDS011;7659;51.038;13.786;2024-01-30T13:03:34;28.17;;;15.95;;
15116;SDS011;7659;51.038;13.786;2024-01-30T13:05:59;31.83;;;17.70;;
15116;SDS011;7659;51.038;13.786;2024-01-30T13:08:25;31.88;;;17.77;;
15116;SDS011;7659;51.038;13.786;2024-01-30T13:10:50;31.17;;;17.55;;
15116;SDS011;7659;51.038;13.786;2024-01-30T13:13:16;31.77;;;18.02;;
15116;SDS011;7659;51.038;13.786;2024-01-30T13:15:41;33.13;;;18.48;;
15116;SDS011;7659;51.038;13.786;2024-01-30T13:18:07;33.90;;;18.67;;
15116;SDS011;7659;51.038;13.786;2024-01-30T13:20:33;32.15;;;18.25;;
15116;SDS011;7659;51.038;13.786;2024-01-30T13:22:59;31.80;;;17.30;;
15116;SDS011;7659;51.038;13.786;2024-01-30T13:25:24;34.10;;;19.02;;
15116;SDS011;7659;51.038;13.786;2024-01-30T13:27:49;32.03;;;18.50;;
15116;SDS011;7659;51.038;13.786;2024-01-30T13:30:15;29.70;;;17.75;;
15116;SDS011;7659;51.038;13.786;2024-01-30T13:32:41;30.05;;;17.38;;
15116;SDS011;7659;51.038;13.786;2024-01-30T13:35:09;29.25;;;17.33;;
15116;SDS011;7659;51.038;13.786;2024-01-30T13:37:34;32.80;;;19.73;;
15116;SDS011;7659;51.038;13.786;2024-01-30T13:40:00;31.65;;;17.85;;
15116;SDS011;7659;51.038;13.786;2024-01-30T13:42:26;32.05;;;18.65;;
15116;SDS011;7659;51.038;13.786;2024-01-30T13:44:52;29.35;;;17.90;;
15116;SDS011;7659;51.038;13.786;2024-01-30T13:47:17;32.28;;;18.67;;
15116;SDS011;7659;51.038;13.786;2024-01-30T13:49:44;32.55;;;19.25;;
15116;SDS011;7659;51.038;13.786;2024-01-30T13:52:09;31.23;;;19.15;;
15116;SDS011;7659;51.038;13.786;2024-01-30T13:54:35;31.50;;;19.38;;
15116;SDS011;7659;51.038;13.786;2024-01-30T13:57:00;32.90;;;18.50;;
15116;SDS011;7659;51.038;13.786;2024-01-30T13:59:26;32.08;;;19.30;;
15116;SDS011;7659;51.038;13.786;2024-01-30T14:01:51;35.67;;;17.95;;
15116;SDS011;7659;51.038;13.786;2024-01-30T14:04:17;36.00;;;19.30;;
15116;SDS011;7659;51.038;13.786;2024-01-30T14:06:42;35.03;;;19.45;;
15116;SDS011;7659;51.038;13.786;2024-01-30T14:09:07;35.30;;;18.35;;
15116;SDS011;7659;51.038;13.786;2024-01-30T14:11:33;31.48;;;19.02;;
15116;SDS011;7659;51.038;13.786;2024-01-30T14:13:58;34.20;;;18.90;;